Time;durP1;ratioP1;P1;durP2;ratioP2;P2;SDS_P1;SDS_P2;PMS_P1;PMS_P2;Temp;Humidity;BMP_temperature;BMP_pressure;BME280_temperature;BME280_humidity;BME280_pressure;Samples;Min_cycle;Max_cycle;Signal;HPM_P1;HPM_P2
2023/05/05 00:00:53;;;;;;;7.93;6.83;;;9.60;99.90;;;;;;5093476;28;20541;-74
2023/05/05 00:03:20;;;;;;;9.30;7.33;;;9.60;99.90;;;;;;5093612;28;20196;-74
2023/05/05 00:05:48;;;;;;;11.30;7.03;;;9.60;99.90;;;;;;5093346;28;20601;-75
2023/05/05 00:08:15;;;;;;;9.90;6.70;;;9.60;99.90;;;;;;5093648;28;20243;-74
2023/05/05 00:10:44;;;;;;;8.80;6.77;;;9.60;99.90;;;;;;5093518;28;20617;-74
2023/05/05 00:13:11;;;;;;;9.90;7.00;;;9.70;99.90;;;;;;5093459;28;20254;-74
2023/05/05 00:15:38;;;;;;;13.63;7.60;;;9.70;99.90;;;;;;5093264;28;20220;-75
2023/05/05 00:18:06;;;;;;;15.30;7.80;;;9.70;99.90;;;;;;5093226;28;20200;-73
2023/05/05 00:20:32;;;;;;;11.13;7.53;;;9.70;99.90;;;;;;5093066;28;20204;-75
2023/05/05 00:22:59;;;;;;;10.00;7.20;;;9.70;99.90;;;;;;5093389;28;20192;-73
2023/05/05 00:25:26;;;;;;;11.93;7.37;;;9.70;99.90;;;;;;5093391;28;20272;-73
2023/05/05 00:27:53;;;;;;;10.03;7.17;;;9.60;99.90;;;;;;5093207;28;20196;-74
2023/05/05 00:30:20;;;;;;;10.70;7.30;;;9.60;99.90;;;;;;5093261;28;20242;-74
2023/05/05 00:32:47;;;;;;;10.07;6.93;;;9.60;99.90;;;;;;5093055;28;20545;-73
2023/05/05 00:35:15;;;;;;;9.00;6.87;;;9.50;99.90;;;;;;5092689;28;20281;-73
2023/05/05 00:37:42;;;;;;;9.00;7.10;;;9.50;99.90;;;;;;5093090;28;20246;-74
2023/05/05 00:40:12;;;;;;;9.77;7.50;;;9.40;99.90;;;;;;5093072;28;20257;-74
2023/05/05 00:42:40;;;;;;;8.30;7.10;;;9.40;99.90;;;;;;5093032;28;20210;-74
2023/05/05 00:45:07;;;;;;;13.90;7.00;;;9.30;99.90;;;;;;5092894;28;20256;-74
2023/05/05 00:47:34;;;;;;;10.77;7.37;;;9.30;99.90;;;;;;5092839;28;20242;-74
2023/05/05 00:50:01;;;;;;;11.57;7.40;;;9.20;99.90;;;;;;5092784;28;20801;-74
2023/05/05 00:52:30;;;;;;;10.10;7.77;;;9.20;99.90;;;;;;5093156;28;20196;-74
2023/05/05 00:54:57;;;;;;;10.43;7.20;;;9.20;99.90;;;;;;5096946;28;20703;-74
2023/05/05 00:57:25;;;;;;;13.03;7.63;;;9.20;99.90;;;;;;5097116;28;20196;-76
2023/05/05 00:59:52;;;;;;;11.20;7.40;;;9.20;99.90;;;;;;5097093;28;20242;-74
2023/05/05 01:02:19;;;;;;;10.63;7.40;;;9.10;99.90;;;;;;5096947;28;20643;-74
2023/05/05 01:04:46;;;;;;;9.00;7.53;;;9.10;99.90;;;;;;5097098;28;20204;-74
2023/05/05 01:07:21;;;;;;;11.03;7.53;;;9.00;99.90;;;;;;5096779;28;20659;-74
2023/05/05 01:09:55;;;;;;;9.10;8.07;;;9.00;99.90;;;;;;5096853;28;20199;-74
2023/05/05 01:12:31;;;;;;;11.77;8.00;;;9.00;99.90;;;;;;5096796;28;20335;-74
2023/05/05 01:15:10;;;;;;;8.03;7.23;;;9.00;99.90;;;;;;5096861;28;20227;-74
2023/05/05 01:17:42;;;;;;;12.27;7.83;;;9.00;99.90;;;;;;5096834;28;20248;-74
2023/05/05 01:20:16;;;;;;;9.97;7.50;;;8.90;99.90;;;;;;5096809;28;20558;-74
2023/05/05 01:22:46;;;;;;;10.60;7.50;;;8.90;99.90;;;;;;5096655;28;20609;-74
2023/05/05 01:25:51;;;;;;;10.50;7.73;;;8.90;99.90;;;;;;5096533;28;20243;-74
2023/05/05 01:28:34;;;;;;;9.50;7.33;;;8.90;99.90;;;;;;5086770;28;20192;-74
2023/05/05 01:31:09;;;;;;;12.33;7.23;;;8.90;99.90;;;;;;5096450;28;20235;-74
2023/05/05 01:33:44;;;;;;;12.17;8.07;;;8.90;99.90;;;;;;5096269;28;20196;-74
2023/05/05 01:36:21;;;;;;;10.57;7.57;;;8.90;99.90;;;;;;5096320;28;20231;-74
2023/05/05 01:38:51;;;;;;;9.07;7.70;;;8.80;99.90;;;;;;5096439;28;20299;-73
2023/05/05 01:41:24;;;;;;;11.20;8.00;;;8.90;99.90;;;;;;5096335;28;20261;-73
2023/05/05 01:43:52;;;;;;;11.33;8.50;;;8.80;99.90;;;;;;5096130;28;20196;-74
2023/05/05 01:46:21;;;;;;;9.57;7.23;;;8.90;99.90;;;;;;5096269;28;20230;-74
2023/05/05 01:48:51;;;;;;;9.67;7.37;;;9.00;99.90;;;;;;5096452;28;20204;-74
2023/05/05 01:51:20;;;;;;;9.67;7.13;;;9.00;99.90;;;;;;5096895;28;20204;-74
2023/05/05 01:53:47;;;;;;;11.80;7.53;;;9.00;99.90;;;;;;5096005;28;20212;-74
2023/05/05 01:56:15;;;;;;;12.53;7.80;;;9.00;99.90;;;;;;5095784;28;20709;-74
2023/05/05 01:58:44;;;;;;;9.23;7.97;;;9.00;99.90;;;;;;5096040;28;20205;-75
2023/05/05 02:01:12;;;;;;;9.73;7.97;;;9.00;99.90;;;;;;5096057;28;20192;-74
2023/05/05 02:03:40;;;;;;;9.83;8.03;;;8.90;99.90;;;;;;5095850;28;20196;-74
2023/05/05 02:06:10;;;;;;;9.50;7.50;;;9.00;99.90;;;;;;5094782;28;20200;-74
2023/05/05 02:08:39;;;;;;;9.73;7.57;;;9.00;99.90;;;;;;5095613;28;20196;-74
2023/05/05 02:11:06;;;;;;;8.87;7.10;;;9.00;99.90;;;;;;5095637;28;20254;-74
2023/05/05 02:13:34;;;;;;;9.00;7.97;;;9.00;99.90;;;;;;5095881;28;20246;-73
2023/05/05 02:16:04;;;;;;;12.60;8.50;;;9.00;99.90;;;;;;5095664;28;20220;-74
2023/05/05 02:18:34;;;;;;;10.57;7.70;;;9.00;99.90;;;;;;5095670;28;20253;-74
2023/05/05 02:21:01;;;;;;;10.27;8.30;;;9.00;99.90;;;;;;5095519;28;20200;-74
2023/05/05 02:23:29;;;;;;;11.13;8.10;;;9.00;99.90;;;;;;5095479;28;20651;-74
2023/05/05 02:26:01;;;;;;;11.70;7.93;;;9.00;99.90;;;;;;5095275;28;20652;-74
2023/05/05 02:28:35;;;;;;;10.60;7.90;;;9.00;99.90;;;;;;5095317;28;20648;-74
2023/05/05 02:31:04;;;;;;;13.93;8.73;;;9.00;99.90;;;;;;5095422;28;20196;-74
2023/05/05 02:33:34;;;;;;;10.53;7.73;;;9.00;99.90;;;;;;5095364;28;20196;-74
2023/05/05 02:36:09;;;;;;;11.77;8.53;;;9.00;99.90;;;;;;5095285;28;20248;-74
2023/05/05 02:38:42;;;;;;;12.10;8.27;;;8.90;99.90;;;;;;5095223;28;20253;-74
2023/05/05 02:41:12;;;;;;;10.63;8.57;;;8.90;99.90;;;;;;5095317;28;20199;-74
2023/05/05 02:43:42;;;;;;;15.77;8.63;;;8.90;99.90;;;;;;5095362;28;20320;-74
2023/05/05 02:46:09;;;;;;;11.60;8.93;;;8.90;99.90;;;;;;5094992;28;20259;-73
2023/05/05 02:48:35;;;;;;;12.07;8.97;;;8.90;99.90;;;;;;5095090;28;20212;-74
2023/05/05 02:51:02;;;;;;;10.67;8.10;;;8.90;99.90;;;;;;5095082;28;20336;-74
2023/05/05 02:53:29;;;;;;;9.83;8.20;;;8.80;99.90;;;;;;5094965;28;20204;-74
2023/05/05 02:56:05;;;;;;;12.47;8.30;;;8.80;99.90;;;;;;5094764;28;20691;-74
2023/05/05 02:58:42;;;;;;;11.23;8.50;;;8.70;99.90;;;;;;5094648;28;20199;-75
2023/05/05 03:01:14;;;;;;;11.90;7.97;;;8.70;99.90;;;;;;5095023;28;20196;-74
2023/05/05 03:03:51;;;;;;;14.30;8.23;;;8.70;99.90;;;;;;5094852;28;20196;-74
2023/05/05 03:06:21;;;;;;;12.27;7.87;;;8.60;99.90;;;;;;5094975;28;20261;-74
2023/05/05 03:08:53;;;;;;;12.30;7.63;;;8.60;99.90;;;;;;5094719;28;20192;-74
2023/05/05 03:11:27;;;;;;;9.93;7.93;;;8.50;99.90;;;;;;5094520;28;20249;-74
2023/05/05 03:14:01;;;;;;;10.80;8.20;;;8.50;99.90;;;;;;5094621;28;20196;-73
2023/05/05 03:16:29;;;;;;;10.53;8.53;;;8.50;99.90;;;;;;5094280;28;20224;-74
2023/05/05 03:18:57;;;;;;;10.33;8.07;;;8.50;99.90;;;;;;5094344;28;20204;-73
2023/05/05 03:21:25;;;;;;;8.80;7.90;;;8.40;99.90;;;;;;5094219;28;20678;-74
2023/05/05 03:23:52;;;;;;;10.27;8.20;;;8.40;99.90;;;;;;5094109;28;20200;-73
2023/05/05 03:26:18;;;;;;;9.53;8.00;;;8.30;99.90;;;;;;5094519;28;20204;-73
2023/05/05 03:28:46;;;;;;;10.03;7.80;;;8.30;99.90;;;;;;5094153;28;20668;-76
2023/05/05 03:31:13;;;;;;;10.73;7.90;;;8.30;99.90;;;;;;5094200;28;20194;-74
2023/05/05 03:33:40;;;;;;;10.87;8.67;;;8.30;99.90;;;;;;5094120;28;20254;-73
2023/05/05 03:36:07;;;;;;;13.30;7.83;;;8.20;99.90;;;;;;5093936;28;20232;-74
2023/05/05 03:38:33;;;;;;;10.40;8.47;;;8.20;99.90;;;;;;5094259;28;20226;-74
2023/05/05 03:41:02;;;;;;;16.83;9.50;;;8.20;99.90;;;;;;5094116;28;20200;-74
2023/05/05 03:43:28;;;;;;;14.57;8.77;;;8.20;99.90;;;;;;5093990;28;20196;-75
2023/05/05 03:45:56;;;;;;;13.47;8.80;;;8.20;99.90;;;;;;5093776;28;20922;-74
2023/05/05 03:48:23;;;;;;;12.77;8.63;;;8.30;99.90;;;;;;5093731;28;20196;-74
2023/05/05 03:50:50;;;;;;;11.83;8.80;;;8.20;99.90;;;;;;5093688;28;20259;-74
2023/05/05 03:53:16;;;;;;;14.77;9.03;;;8.20;99.90;;;;;;5093585;28;20201;-74
2023/05/05 03:55:43;;;;;;;11.07;9.17;;;8.20;99.90;;;;;;5083053;28;20216;-74
2023/05/05 03:58:09;;;;;;;12.97;9.30;;;8.20;99.90;;;;;;5073284;28;20271;-74
2023/05/05 04:00:36;;;;;;;15.10;8.67;;;8.20;99.90;;;;;;5073350;28;20303;-74
2023/05/05 04:03:04;;;;;;;10.77;8.10;;;8.20;99.90;;;;;;5073301;28;20250;-75
2023/05/05 04:05:31;;;;;;;11.33;8.70;;;8.20;99.90;;;;;;5073004;28;20545;-74
2023/05/05 04:07:57;;;;;;;12.10;8.60;;;8.30;99.90;;;;;;5073359;28;20201;-74
2023/05/05 04:10:24;;;;;;;9.60;7.80;;;8.30;99.90;;;;;;5073289;28;20201;-74
2023/05/05 04:12:51;;;;;;;11.70;8.27;;;8.40;99.90;;;;;;5073193;28;20193;-74
2023/05/05 04:15:17;;;;;;;12.73;8.17;;;8.40;99.90;;;;;;5073129;28;20201;-74
2023/05/05 04:17:44;;;;;;;11.30;7.90;;;8.50;99.90;;;;;;5072998;28;20225;-75
2023/05/05 04:20:12;;;;;;;13.47;8.60;;;8.50;99.90;;;;;;5072971;28;20648;-74
2023/05/05 04:22:39;;;;;;;10.17;7.80;;;8.50;99.90;;;;;;5073223;28;20196;-74
2023/05/05 04:25:06;;;;;;;13.90;8.40;;;8.60;99.90;;;;;;5072911;28;20703;-74
2023/05/05 04:27:33;;;;;;;11.40;7.93;;;8.60;99.90;;;;;;5072383;28;20208;-74
2023/05/05 04:30:00;;;;;;;12.60;8.23;;;8.60;99.90;;;;;;5072886;28;20209;-75
2023/05/05 04:32:26;;;;;;;10.20;8.33;;;8.70;99.90;;;;;;5072811;28;20208;-74
2023/05/05 04:34:53;;;;;;;12.50;8.17;;;8.70;99.90;;;;;;5072456;28;20208;-73
2023/05/05 04:37:21;;;;;;;11.50;8.33;;;8.70;99.90;;;;;;5072706;28;20773;-74
2023/05/05 04:39:47;;;;;;;12.30;8.20;;;8.70;99.90;;;;;;5072990;28;20250;-74
2023/05/05 04:42:14;;;;;;;9.53;7.70;;;8.70;99.90;;;;;;5072870;28;20201;-74
2023/05/05 04:44:41;;;;;;;12.10;8.07;;;8.80;99.90;;;;;;5072865;28;20200;-74
2023/05/05 04:47:07;;;;;;;10.47;8.50;;;8.90;99.90;;;;;;5072610;28;20258;-74
2023/05/05 04:49:34;;;;;;;11.73;7.87;;;9.00;99.90;;;;;;5072758;28;20256;-73
2023/05/05 04:52:01;;;;;;;8.83;7.47;;;9.10;99.90;;;;;;5072792;28;20201;-74
2023/05/05 04:54:29;;;;;;;9.43;7.37;;;9.20;99.90;;;;;;5072759;28;20197;-74
2023/05/05 04:56:55;;;;;;;12.17;7.80;;;9.30;99.90;;;;;;5072526;28;20254;-76
2023/05/05 04:59:22;;;;;;;9.93;7.50;;;9.40;99.90;;;;;;5072610;28;20201;-75
2023/05/05 05:01:48;;;;;;;11.33;7.60;;;9.50;99.90;;;;;;5072194;28;20238;-74
2023/05/05 05:04:17;;;;;;;10.40;7.40;;;9.70;99.90;;;;;;5072630;28;20266;-75
2023/05/05 05:06:44;;;;;;;11.80;7.07;;;9.80;99.90;;;;;;5072529;28;20201;-74
2023/05/05 05:09:10;;;;;;;8.83;7.20;;;9.80;99.90;;;;;;5072538;28;20250;-75
2023/05/05 05:11:38;;;;;;;13.27;7.80;;;9.90;99.90;;;;;;5072448;28;20197;-74
2023/05/05 05:14:05;;;;;;;12.50;7.70;;;10.00;99.90;;;;;;5072335;28;20193;-74
2023/05/05 05:16:32;;;;;;;14.60;8.03;;;10.10;99.90;;;;;;5072247;28;20223;-76
2023/05/05 05:18:59;;;;;;;10.33;7.40;;;10.20;99.90;;;;;;5072549;28;20565;-75
2023/05/05 05:21:26;;;;;;;13.67;8.50;;;10.20;99.90;;;;;;5072398;28;20234;-75
2023/05/05 05:23:53;;;;;;;16.73;9.07;;;10.40;99.90;;;;;;5072366;28;20201;-75
2023/05/05 05:26:20;;;;;;;16.50;8.17;;;10.40;99.90;;;;;;5072134;28;20270;-75
2023/05/05 05:28:48;;;;;;;11.47;8.10;;;10.40;99.90;;;;;;5072099;28;20649;-75
2023/05/05 05:31:14;;;;;;;10.47;8.13;;;10.60;99.90;;;;;;5072471;28;20259;-75
2023/05/05 05:33:41;;;;;;;10.27;7.57;;;10.70;99.90;;;;;;5072267;28;20197;-75
2023/05/05 05:36:08;;;;;;;11.70;8.30;;;10.80;99.90;;;;;;5071686;28;20286;-75
2023/05/05 05:38:34;;;;;;;12.13;9.10;;;10.80;99.90;;;;;;5072634;28;20261;-75
2023/05/05 05:41:05;;;;;;;9.33;8.27;;;10.90;99.90;;;;;;5075825;28;20250;-75
2023/05/05 05:43:32;;;;;;;15.60;10.03;;;10.90;99.90;;;;;;5075647;28;20525;-75
2023/05/05 05:46:00;;;;;;;14.60;9.17;;;11.00;99.90;;;;;;5075808;28;20193;-75
2023/05/05 05:48:28;;;;;;;12.50;8.60;;;11.00;99.90;;;;;;5075762;28;20197;-75
2023/05/05 05:50:54;;;;;;;13.83;8.90;;;11.10;99.90;;;;;;5075650;28;20196;-75
2023/05/05 05:53:21;;;;;;;12.90;8.73;;;11.10;99.90;;;;;;5075581;28;20197;-75
2023/05/05 05:55:48;;;;;;;16.30;8.80;;;11.20;99.90;;;;;;5075333;28;20204;-75
2023/05/05 05:58:15;;;;;;;12.17;9.50;;;11.20;99.90;;;;;;5075316;28;20691;-74
2023/05/05 06:00:42;;;;;;;14.17;9.17;;;11.30;99.90;;;;;;5075684;28;20235;-75
2023/05/05 06:03:10;;;;;;;14.07;10.00;;;11.50;99.90;;;;;;5075206;28;20606;-75
2023/05/05 06:05:37;;;;;;;11.73;9.20;;;11.60;99.90;;;;;;5075408;28;20270;-75
2023/05/05 06:08:04;;;;;;;12.47;8.77;;;11.80;99.90;;;;;;5075260;28;20254;-75
2023/05/05 06:10:31;;;;;;;12.47;8.73;;;11.90;99.90;;;;;;5075267;28;20205;-74
2023/05/05 06:12:57;;;;;;;11.13;8.10;;;12.00;99.90;;;;;;5075470;28;20665;-74
2023/05/05 06:15:24;;;;;;;14.90;9.03;;;12.10;99.90;;;;;;5075510;28;20201;-75
2023/05/05 06:17:51;;;;;;;10.27;8.33;;;12.30;99.90;;;;;;5075279;28;20231;-75
2023/05/05 06:20:19;;;;;;;11.23;8.27;;;12.40;99.90;;;;;;5075324;28;20208;-76
2023/05/05 06:22:45;;;;;;;11.50;8.83;;;12.60;99.90;;;;;;5075072;28;20247;-75
2023/05/05 06:25:12;;;;;;;12.60;8.80;;;12.80;99.90;;;;;;5075304;28;20193;-74
2023/05/05 06:27:39;;;;;;;10.47;8.73;;;12.90;99.90;;;;;;5075195;28;20197;-75
2023/05/05 06:30:08;;;;;;;12.60;8.40;;;13.10;99.90;;;;;;5075047;28;20281;-75
2023/05/05 06:32:34;;;;;;;9.40;8.43;;;13.20;99.90;;;;;;5074828;28;20197;-75
2023/05/05 06:35:02;;;;;;;8.97;8.07;;;13.30;99.90;;;;;;5074569;28;20233;-74
2023/05/05 06:37:29;;;;;;;11.63;8.10;;;13.40;99.90;;;;;;5074664;28;20419;-75
2023/05/05 06:39:56;;;;;;;9.90;7.70;;;13.50;99.90;;;;;;5074835;28;20201;-75
2023/05/05 06:42:23;;;;;;;11.60;8.93;;;13.70;99.90;;;;;;5074818;28;20201;-74
2023/05/05 06:44:50;;;;;;;8.73;7.80;;;13.90;99.90;;;;;;5074825;28;20198;-74
2023/05/05 06:47:16;;;;;;;10.13;7.80;;;14.10;99.90;;;;;;5074541;28;20235;-75
2023/05/05 06:49:43;;;;;;;12.07;8.33;;;14.20;99.90;;;;;;5074169;28;20205;-74
2023/05/05 06:52:10;;;;;;;14.10;8.30;;;14.40;99.90;;;;;;5073880;28;20197;-76
2023/05/05 06:54:38;;;;;;;8.47;7.57;;;14.60;99.90;;;;;;5074088;28;20208;-75
2023/05/05 06:57:04;;;;;;;8.77;7.50;;;14.80;99.90;;;;;;5074554;28;20293;-75
2023/05/05 06:59:31;;;;;;;12.48;8.35;;;15.00;99.90;;;;;;5074321;28;20201;-75
2023/05/05 07:01:58;;;;;;;10.87;7.87;;;15.10;99.90;;;;;;5074364;28;20607;-75
2023/05/05 07:04:25;;;;;;;11.43;8.15;;;15.30;99.90;;;;;;5073968;28;20201;-75
2023/05/05 07:06:54;;;;;;;10.13;7.50;;;15.40;99.90;;;;;;5074312;28;20212;-75
2023/05/05 07:09:20;;;;;;;11.73;8.52;;;15.60;99.90;;;;;;5074276;28;20201;-75
2023/05/05 07:11:48;;;;;;;16.67;8.80;;;15.80;99.90;;;;;;5074211;28;20201;-75
2023/05/05 07:14:15;;;;;;;9.85;8.77;;;15.90;99.90;;;;;;5074016;28;20201;-75
2023/05/05 07:16:41;;;;;;;15.07;8.13;;;16.10;99.90;;;;;;5074108;28;20220;-75
2023/05/05 07:19:08;;;;;;;11.32;8.23;;;16.30;99.90;;;;;;5073893;28;20192;-76
2023/05/05 07:21:35;;;;;;;12.82;8.57;;;16.30;99.90;;;;;;5073798;28;20648;-76
2023/05/05 07:24:02;;;;;;;14.95;8.70;;;16.30;99.90;;;;;;5073801;28;20247;-75
2023/05/05 07:26:29;;;;;;;11.80;8.43;;;16.50;99.90;;;;;;5073871;28;20266;-75
2023/05/05 07:28:57;;;;;;;11.05;8.13;;;16.80;99.90;;;;;;5073578;28;20645;-75
2023/05/05 07:31:24;;;;;;;8.93;7.70;;;17.10;99.90;;;;;;5073544;28;20668;-75
2023/05/05 07:33:51;;;;;;;11.75;8.05;;;17.40;99.90;;;;;;5073766;28;20209;-75
2023/05/05 07:36:18;;;;;;;10.63;7.53;;;17.60;99.90;;;;;;5073611;28;20225;-75
2023/05/05 07:38:44;;;;;;;8.63;7.80;;;17.70;99.90;;;;;;5073879;28;20229;-75
2023/05/05 07:41:11;;;;;;;7.82;7.03;;;17.70;99.90;;;;;;5073676;28;20542;-75
2023/05/05 07:43:39;;;;;;;8.85;7.20;;;17.90;99.90;;;;;;5073602;28;20225;-75
2023/05/05 07:46:07;;;;;;;12.43;7.32;;;18.20;99.90;;;;;;5073194;28;20197;-74
2023/05/05 07:48:34;;;;;;;10.65;8.02;;;18.10;99.90;;;;;;5073457;28;20201;-75
2023/05/05 07:51:01;;;;;;;9.63;8.02;;;18.20;99.90;;;;;;5073706;28;20205;-75
2023/05/05 07:53:28;;;;;;;12.13;7.15;;;18.30;99.90;;;;;;5073295;28;20529;-76
2023/05/05 07:55:54;;;;;;;10.23;8.30;;;18.40;99.90;;;;;;5073225;28;20243;-75
2023/05/05 07:58:21;;;;;;;10.25;7.90;;;18.60;99.90;;;;;;5073366;28;20229;-75
2023/05/05 08:00:49;;;;;;;9.32;8.10;;;18.60;99.90;;;;;;5073156;28;20247;-75
2023/05/05 08:03:18;;;;;;;9.82;8.82;;;18.80;99.90;;;;;;5072604;28;20209;-73
2023/05/05 08:05:45;;;;;;;10.10;7.80;;;18.90;99.90;;;;;;5073339;28;20280;-74
2023/05/05 08:08:12;;;;;;;10.00;8.40;;;19.00;99.90;;;;;;5073102;28;20197;-76
2023/05/05 08:10:39;;;;;;;12.10;8.27;;;18.90;99.90;;;;;;5073083;28;20200;-75
2023/05/05 08:13:05;;;;;;;11.27;8.73;;;19.10;99.90;;;;;;5073010;28;20247;-73
2023/05/05 08:15:32;;;;;;;9.30;8.40;;;19.10;99.90;;;;;;5072847;28;20278;-72
2023/05/05 08:17:58;;;;;;;12.85;8.48;;;19.30;99.90;;;;;;5073182;28;20282;-72
2023/05/05 08:20:29;;;;;;;11.25;8.27;;;19.60;99.90;;;;;;5073109;28;20196;-74
2023/05/05 08:22:55;;;;;;;11.68;8.50;;;19.60;99.90;;;;;;5072936;28;20235;-75
2023/05/05 08:25:23;;;;;;;9.27;8.25;;;19.90;99.90;;;;;;5072861;28;20197;-71
2023/05/05 08:27:49;;;;;;;9.38;8.48;;;19.70;99.90;;;;;;5072910;28;20263;-74
2023/05/05 08:30:19;;;;;;;9.48;8.55;;;19.50;99.90;;;;;;5073223;28;20208;-73
2023/05/05 08:32:46;;;;;;;15.45;8.73;;;19.50;99.90;;;;;;5072776;28;20189;-74
2023/05/05 08:35:13;;;;;;;10.10;9.02;;;19.60;99.90;;;;;;5072653;28;20235;-73
2023/05/05 08:37:41;;;;;;;11.73;9.05;;;19.90;99.90;;;;;;5072829;28;20231;-74
2023/05/05 08:40:10;;;;;;;13.77;9.32;;;20.00;99.90;;;;;;5069677;28;20197;-73
2023/05/05 08:42:37;;;;;;;10.27;9.20;;;20.10;99.90;;;;;;5072125;28;20270;-73
2023/05/05 08:45:05;;;;;;;11.88;8.35;;;20.40;99.90;;;;;;5072314;28;20189;-74
2023/05/05 08:47:31;;;;;;;10.57;8.77;;;21.00;99.90;;;;;;5072352;28;20599;-73
2023/05/05 08:50:00;;;;;;;11.45;9.18;;;21.00;99.90;;;;;;5072318;28;20200;-74
2023/05/05 08:52:31;;;;;;;9.60;8.60;;;21.00;99.90;;;;;;5072155;28;20193;-74
2023/05/05 08:55:05;;;;;;;10.50;9.27;;;21.20;99.90;;;;;;5071408;28;20192;-72
2023/05/05 08:57:40;;;;;;;10.18;9.15;;;21.30;99.90;;;;;;5071999;28;20242;-72
2023/05/05 09:00:09;;;;;;;13.68;9.05;;;21.60;99.90;;;;;;5072456;28;20196;-72
2023/05/05 09:02:36;;;;;;;9.63;8.80;;;22.10;99.90;;;;;;5072321;28;20189;-73
2023/05/05 09:05:04;;;;;;;8.40;7.57;;;22.00;99.90;;;;;;5071972;28;20227;-73
2023/05/05 09:07:32;;;;;;;9.63;7.38;;;22.20;99.90;;;;;;5071739;28;20201;-73
2023/05/05 09:10:02;;;;;;;8.18;6.90;;;22.40;99.90;;;;;;5072246;28;20201;-74
2023/05/05 09:12:30;;;;;;;8.10;7.30;;;22.70;99.90;;;;;;5072191;28;20189;-73
2023/05/05 09:14:57;;;;;;;8.85;7.13;;;22.60;99.90;;;;;;5074784;28;20192;-72
2023/05/05 09:17:25;;;;;;;11.73;7.20;;;22.30;99.90;;;;;;5075866;28;20242;-73
2023/05/05 09:20:06;;;;;;;8.38;7.57;;;22.80;99.90;;;;;;5076170;28;20204;-74
2023/05/05 09:22:33;;;;;;;8.60;7.72;;;22.60;99.90;;;;;;5077291;28;20203;-74
2023/05/05 09:25:01;;;;;;;7.65;6.88;;;22.20;99.90;;;;;;5059384;28;20248;-74
2023/05/05 09:27:28;;;;;;;10.68;7.07;;;22.60;99.90;;;;;;5055523;28;20260;-74
2023/05/05 09:29:55;;;;;;;9.15;7.63;;;22.90;99.90;;;;;;5055601;28;20198;-73
2023/05/05 09:32:22;;;;;;;8.00;7.20;;;22.30;99.90;;;;;;5056894;28;20240;-73
2023/05/05 09:34:57;;;;;;;7.47;6.68;;;22.10;99.90;;;;;;5075649;28;20607;-73
2023/05/05 09:37:28;;;;;;;8.40;7.45;;;22.30;99.90;;;;;;5075763;28;20197;-73
2023/05/05 09:39:55;;;;;;;10.27;7.18;;;22.40;99.90;;;;;;5075880;28;20255;-72
2023/05/05 09:42:23;;;;;;;7.70;6.90;;;22.90;99.90;;;;;;5075527;28;20265;-73
2023/05/05 09:44:50;;;;;;;7.82;6.60;;;22.90;99.90;;;;;;5075700;28;20197;-74
2023/05/05 09:47:17;;;;;;;11.63;7.15;;;22.70;99.90;;;;;;5075668;28;20197;-73
2023/05/05 09:49:43;;;;;;;10.63;6.72;;;22.70;99.90;;;;;;5075711;28;20287;-73
2023/05/05 09:52:14;;;;;;;7.40;6.60;;;23.90;99.90;;;;;;5075376;28;20556;-74
2023/05/05 09:54:42;;;;;;;7.30;5.90;;;23.90;99.90;;;;;;5075655;28;20225;-74
2023/05/05 09:57:09;;;;;;;7.18;6.40;;;24.40;99.90;;;;;;5075632;28;20197;-74
2023/05/05 09:59:37;;;;;;;9.20;5.45;;;24.70;99.90;;;;;;5075047;28;20394;-73
2023/05/05 10:02:12;;;;;;;8.73;6.00;;;25.50;99.90;;;;;;5075412;28;20608;-74
2023/05/05 10:04:39;;;;;;;8.07;5.97;;;24.70;99.90;;;;;;5075270;28;20193;-73
2023/05/05 10:07:06;;;;;;;7.00;5.65;;;24.90;99.90;;;;;;5075399;28;20280;-74
2023/05/05 10:09:32;;;;;;;5.55;5.05;;;25.40;99.90;;;;;;5075110;28;20200;-74
2023/05/05 10:12:00;;;;;;;7.20;5.88;;;25.30;99.90;;;;;;5074803;28;20205;-74
2023/05/05 10:14:27;;;;;;;7.07;5.50;;;25.20;99.90;;;;;;5075373;28;20244;-74
2023/05/05 10:16:55;;;;;;;6.03;5.45;;;25.00;99.90;;;;;;5075014;28;20193;-74
2023/05/05 10:19:24;;;;;;;6.55;5.20;;;25.20;99.90;;;;;;5074773;28;20235;-74
2023/05/05 10:21:53;;;;;;;4.90;4.50;;;25.90;99.90;;;;;;5074759;28;20227;-74
2023/05/05 10:24:30;;;;;;;5.07;4.68;;;26.10;99.10;;;;;;5074810;28;20529;-73
2023/05/05 10:26:58;;;;;;;4.90;4.50;;;26.10;98.50;;;;;;5073974;28;20591;-74
2023/05/05 10:29:36;;;;;;;7.00;5.03;;;26.40;97.00;;;;;;5074732;28;20255;-73
2023/05/05 10:32:12;;;;;;;8.45;4.88;;;26.20;95.70;;;;;;5074916;28;20193;-73
2023/05/05 10:34:49;;;;;;;4.78;4.38;;;26.70;94.70;;;;;;5074909;28;20197;-73
2023/05/05 10:37:17;;;;;;;5.80;4.85;;;26.90;93.50;;;;;;5074573;28;20208;-73
2023/05/05 10:39:45;;;;;;;4.57;4.18;;;26.80;92.80;;;;;;5074431;28;20336;-74
2023/05/05 10:42:13;;;;;;;5.22;4.70;;;27.10;91.90;;;;;;5074810;28;20193;-73
2023/05/05 10:44:40;;;;;;;6.18;3.92;;;27.50;91.70;;;;;;5077874;28;20200;-74
2023/05/05 10:47:08;;;;;;;4.60;3.80;;;27.50;92.40;;;;;;5094912;28;20203;-73
2023/05/05 10:49:42;;;;;;;9.82;4.35;;;27.10;91.50;;;;;;5094419;28;20205;-73
2023/05/05 10:52:17;;;;;;;5.43;2.65;;;26.80;89.50;;;;;;5094795;28;20200;-74
2023/05/05 10:54:49;;;;;;;5.35;3.70;;;25.60;81.60;;;;;;5094748;28;20740;-74
2023/05/05 10:57:20;;;;;;;8.23;4.05;;;25.60;87.00;;;;;;5094720;28;20275;-73
2023/05/05 10:59:47;;;;;;;4.70;4.00;;;25.80;89.70;;;;;;5094317;28;20293;-74
2023/05/05 11:02:23;;;;;;;4.95;4.13;;;24.90;90.60;;;;;;5081744;28;20202;-76
2023/05/05 11:05:07;;;;;;;7.00;5.65;;;24.30;92.70;;;;;;5054152;28;20233;-74
2023/05/05 11:07:34;;;;;;;5.18;4.65;;;23.50;93.80;;;;;;5053802;28;20288;-74
2023/05/05 11:10:01;;;;;;;5.20;4.60;;;23.10;94.80;;;;;;5053895;28;20197;-74
2023/05/05 11:12:28;;;;;;;4.30;3.90;;;23.00;94.80;;;;;;5053803;28;20202;-74
2023/05/05 11:15:36;;;;;;;5.22;3.75;;;22.60;93.10;;;;;;5053474;28;20535;-74
2023/05/05 11:18:05;;;;;;;6.35;4.47;;;22.60;93.20;;;;;;5053946;28;20264;-73
2023/05/05 11:21:03;;;;;;;6.43;4.50;;;22.90;93.80;;;;;;5053646;28;20206;-73
2023/05/05 11:23:31;;;;;;;5.10;4.57;;;23.10;94.90;;;;;;5053810;28;20235;-73
2023/05/05 11:25:59;;;;;;;6.60;4.70;;;23.10;95.10;;;;;;5053827;28;20281;-73
2023/05/05 11:28:28;;;;;;;6.50;5.13;;;22.90;95.60;;;;;;5053901;28;20202;-73
2023/05/05 11:31:17;;;;;;;8.98;5.10;;;22.70;96.80;;;;;;5053021;28;20228;-73
2023/05/05 11:33:46;;;;;;;6.95;3.88;;;22.60;96.60;;;;;;5053440;28;20202;-73
2023/05/05 11:36:13;;;;;;;4.88;4.20;;;22.10;97.20;;;;;;5053273;28;20355;-75
2023/05/05 11:39:02;;;;;;;6.45;4.25;;;21.80;97.30;;;;;;5053348;28;20217;-74
2023/05/05 11:41:58;;;;;;;7.22;4.30;;;21.60;97.20;;;;;;5053423;28;20220;-74
2023/05/05 11:44:30;;;;;;;5.78;3.75;;;21.80;97.70;;;;;;5053360;28;20664;-73
2023/05/05 11:47:29;;;;;;;4.13;3.72;;;22.10;96.70;;;;;;5053199;28;20227;-73
2023/05/05 11:49:57;;;;;;;7.00;3.92;;;22.00;96.90;;;;;;5053194;28;20671;-72
2023/05/05 11:52:26;;;;;;;4.38;3.97;;;21.70;96.70;;;;;;5053291;28;20206;-73
2023/05/05 11:54:52;;;;;;;5.60;4.07;;;21.80;97.30;;;;;;5053499;28;20736;-73
2023/05/05 11:57:26;;;;;;;6.75;4.25;;;21.90;97.20;;;;;;5053149;28;20197;-74
2023/05/05 11:59:55;;;;;;;4.45;3.90;;;21.80;97.70;;;;;;5053419;28;20692;-73
2023/05/05 12:02:23;;;;;;;4.43;4.03;;;22.30;97.60;;;;;;5053209;28;20235;-73
2023/05/05 12:04:50;;;;;;;4.28;3.97;;;22.30;98.00;;;;;;5052857;28;20731;-73
2023/05/05 12:07:20;;;;;;;6.55;3.80;;;21.80;98.60;;;;;;5053226;28;20247;-73
2023/05/05 12:09:48;;;;;;;5.38;3.45;;;21.70;98.20;;;;;;5053181;28;20254;-78
2023/05/05 12:12:15;;;;;;;7.28;3.60;;;22.10;98.60;;;;;;5052955;28;20335;-75
2023/05/05 12:14:47;;;;;;;4.50;3.53;;;22.20;98.00;;;;;;5053010;28;20201;-77
2023/05/05 12:17:14;;;;;;;7.18;3.88;;;22.40;97.40;;;;;;5052664;28;20557;-77
2023/05/05 12:19:48;;;;;;;5.05;3.30;;;22.50;96.90;;;;;;5052811;28;20225;-76
2023/05/05 12:22:21;;;;;;;2.85;2.40;;;22.50;93.60;;;;;;5052782;28;20587;-76
2023/05/05 12:24:55;;;;;;;4.03;2.45;;;23.00;91.60;;;;;;5052944;28;20251;-73
2023/05/05 12:27:22;;;;;;;6.75;2.60;;;22.90;89.10;;;;;;5052771;28;20193;-74
2023/05/05 12:29:49;;;;;;;3.95;2.80;;;22.90;89.40;;;;;;5052963;28;20206;-77
2023/05/05 12:32:21;;;;;;;4.38;2.55;;;22.60;91.10;;;;;;5052874;28;20193;-76
2023/05/05 12:34:48;;;;;;;3.65;2.53;;;23.00;91.80;;;;;;5052703;28;20197;-77
2023/05/05 12:37:17;;;;;;;4.10;2.97;;;23.10;90.00;;;;;;5052789;28;20260;-75
2023/05/05 12:39:45;;;;;;;3.70;3.10;;;23.20;90.20;;;;;;5052560;28;20271;-75
2023/05/05 12:42:12;;;;;;;2.75;2.42;;;24.00;90.90;;;;;;5052536;28;20198;-74
2023/05/05 12:44:40;;;;;;;4.68;3.22;;;23.80;85.70;;;;;;5052620;28;20198;-75
2023/05/05 12:47:07;;;;;;;5.63;2.65;;;23.70;90.90;;;;;;5052587;28;20219;-77
2023/05/05 12:49:45;;;;;;;3.97;2.28;;;23.20;86.50;;;;;;5051994;28;20197;-76
2023/05/05 12:52:13;;;;;;;4.70;2.33;;;22.60;79.20;;;;;;5052505;28;20228;-79
2023/05/05 12:54:55;;;;;;;2.38;2.17;;;22.40;81.80;;;;;;5052255;28;20233;-79